createdAt,value
2022-08-11T00:02:02.217Z,80.20
2022-08-11T00:04:37.405Z,80.90
2022-08-11T00:07:07.931Z,81.00
2022-08-11T00:09:39.907Z,81.10
2022-08-11T00:12:14.733Z,81.40
2022-08-11T00:14:45.491Z,81.10
2022-08-11T00:17:15.863Z,81.10
2022-08-11T00:20:15.055Z,81.70
2022-08-11T00:22:37.394Z,82.20
2022-08-11T00:25:11.629Z,82.00
2022-08-11T00:27:41.699Z,82.60
2022-08-11T00:30:13.537Z,82.80
2022-08-11T00:32:44.516Z,82.30
2022-08-11T00:35:55.215Z,83.00
2022-08-11T00:38:04.938Z,83.20
2022-08-11T00:40:39.625Z,82.60
2022-08-11T00:43:20.198Z,82.80
2022-08-11T00:46:10.252Z,83.20
2022-08-11T00:48:50.695Z,83.00
2022-08-11T00:51:27.085Z,83.20
2022-08-11T00:54:39.105Z,83.40
2022-08-11T00:57:37.628Z,83.80
2022-08-11T01:00:24.632Z,84.20
2022-08-11T01:03:19.086Z,84.50
2022-08-11T01:06:01.527Z,84.90
2022-08-11T01:09:04.659Z,84.50
2022-08-11T01:12:05.142Z,85.00
2022-08-11T01:15:02.908Z,85.30
2022-08-11T01:18:10.934Z,85.00
2022-08-11T01:21:13.718Z,85.10
2022-08-11T01:24:19.240Z,84.90
2022-08-11T01:27:22.956Z,85.00
2022-08-11T01:30:39.262Z,84.70
2022-08-11T01:33:44.471Z,85.40
2022-08-11T01:37:01.093Z,85.10
2022-08-11T01:40:08.245Z,86.00
2022-08-11T01:43:29.092Z,86.40
2022-08-11T01:46:02.765Z,86.70
2022-08-11T01:48:45.373Z,87.00
2022-08-11T01:51:25.798Z,86.70
2022-08-11T01:54:04.162Z,86.70
2022-08-11T01:56:57.432Z,87.00
2022-08-11T01:59:30.651Z,87.90
2022-08-11T02:02:21.641Z,87.70
2022-08-11T02:04:58.465Z,88.30
2022-08-11T02:07:34.284Z,88.50
2022-08-11T02:10:38.264Z,88.50
2022-08-11T02:13:16.392Z,88.70
2022-08-11T02:15:51.579Z,89.50
2022-08-11T02:18:48.170Z,88.80
2022-08-11T02:21:42.080Z,89.30
2022-08-11T02:24:18.904Z,89.30
2022-08-11T02:26:55.597Z,89.90
2022-08-11T02:29:31.021Z,90.10
2022-08-11T02:32:30.554Z,90.10
2022-08-11T02:35:19.116Z,90.00
2022-08-11T02:37:56.706Z,90.00
2022-08-11T02:40:32.545Z,90.10
2022-08-11T02:43:12.275Z,90.50
2022-08-11T02:45:54.054Z,90.60
2022-08-11T02:48:52.429Z,90.70
2022-08-11T02:51:30.169Z,90.80
2022-08-11T02:54:07.257Z,90.70
2022-08-11T02:56:52.218Z,90.70
2022-08-11T02:59:52.199Z,90.70
2022-08-11T03:02:47.837Z,90.70
2022-08-11T03:05:37.815Z,90.80
2022-08-11T03:08:24.575Z,91.00
2022-08-11T03:11:20.252Z,91.10
2022-08-11T03:14:14.226Z,91.20
2022-08-11T03:16:56.030Z,91.00
2022-08-11T03:19:31.249Z,91.30
2022-08-11T03:22:06.925Z,91.20
2022-08-11T03:24:59.169Z,90.90
2022-08-11T03:27:37.913Z,91.20
2022-08-11T03:30:15.461Z,91.50
2022-08-11T03:33:09.150Z,91.70
2022-08-11T03:35:43.618Z,91.90
2022-08-11T03:38:16.363Z,92.00
2022-08-11T03:41:59.295Z,91.90
2022-08-11T03:44:26.233Z,92.00
2022-08-11T03:47:08.592Z,92.20
2022-08-11T03:49:50.653Z,92.60
2022-08-11T03:52:28.876Z,93.00
2022-08-11T03:55:04.726Z,93.00
2022-08-11T03:58:06.725Z,93.10
2022-08-11T04:00:59.294Z,93.40
2022-08-11T04:03:52.308Z,93.60
2022-08-11T04:06:49.619Z,93.60
2022-08-11T04:10:01.900Z,93.60
2022-08-11T04:12:47.107Z,93.70
2022-08-11T04:15:57.646Z,93.60
2022-08-11T04:19:01.349Z,93.40
2022-08-11T04:22:07.222Z,93.40
2022-08-11T04:25:10.915Z,93.40
2022-08-11T04:28:28.535Z,93.40
2022-08-11T04:31:11.985Z,93.50
2022-08-11T04:34:01.229Z,93.40
2022-08-11T04:37:12.540Z,93.60
2022-08-11T04:40:12.304Z,93.90
2022-08-11T04:43:25.176Z,94.10
2022-08-11T04:46:14.638Z,94.00
2022-08-11T04:49:36.514Z,94.10
2022-08-11T04:52:55.756Z,94.50
2022-08-11T04:56:05.136Z,94.90
2022-08-11T05:02:59.732Z,94.50
2022-08-11T05:05:56.797Z,94.40
2022-08-11T05:08:58.291Z,94.20
2022-08-11T05:12:20.212Z,93.80
2022-08-11T05:15:09.750Z,93.60
2022-08-11T05:17:59.690Z,93.50
2022-08-11T05:20:46.282Z,92.70
2022-08-11T05:23:38.731Z,92.20
2022-08-11T05:26:46.735Z,92.10
2022-08-11T05:29:53.869Z,91.50
2022-08-11T05:32:41.142Z,91.00
2022-08-11T05:35:10.776Z,90.60
2022-08-11T05:38:17.561Z,90.30
2022-08-11T05:41:13.205Z,89.50
2022-08-11T05:44:19.682Z,89.20
2022-08-11T05:47:10.235Z,88.50
2022-08-11T05:49:56.629Z,86.50
2022-08-11T05:52:44.954Z,85.60
2022-08-11T05:55:34.258Z,85.20
2022-08-11T05:58:06.985Z,84.80
2022-08-11T06:00:43.399Z,84.40
2022-08-11T06:03:21.415Z,85.00
2022-08-11T06:05:51.770Z,84.50
2022-08-11T06:08:31.001Z,84.50
2022-08-11T06:11:03.456Z,84.50
2022-08-11T06:13:32.501Z,84.00
2022-08-11T06:16:06.225Z,83.10
2022-08-11T06:18:38.281Z,83.30
2022-08-11T06:21:12.150Z,82.60
2022-08-11T06:23:42.383Z,82.80
2022-08-11T06:26:11.838Z,82.90
2022-08-11T06:28:45.095Z,82.10
2022-08-11T06:31:15.184Z,81.40
2022-08-11T06:33:57.040Z,81.00
2022-08-11T06:36:34.336Z,81.40
2022-08-11T06:39:13.093Z,82.00
2022-08-11T06:41:48.312Z,81.60
2022-08-11T06:44:23.423Z,82.60
2022-08-11T06:46:54.669Z,82.20
2022-08-11T06:49:51.622Z,81.90
2022-08-11T06:52:35.330Z,81.10
2022-08-11T06:55:55.664Z,81.60
2022-08-11T06:58:16.067Z,81.20
2022-08-11T07:00:45.112Z,81.80
2022-08-11T07:03:17.674Z,81.60
2022-08-11T07:05:53.048Z,81.10
2022-08-11T07:09:23.686Z,80.20
2022-08-11T07:12:56.501Z,79.80
2022-08-11T07:16:12.246Z,78.10
2022-08-11T07:18:53.204Z,78.20
2022-08-11T07:22:01.081Z,77.50
2022-08-11T07:25:08.669Z,77.40
2022-08-11T07:28:01.160Z,77.60
2022-08-11T07:30:30.297Z,77.50
2022-08-11T07:33:02.005Z,75.70
2022-08-11T07:35:35.212Z,74.70
2022-08-11T07:38:09.890Z,75.00
2022-08-11T07:40:38.446Z,76.20
2022-08-11T07:43:08.049Z,75.90
2022-08-11T07:45:53.780Z,75.10
2022-08-11T07:48:39.795Z,75.20
2022-08-11T07:51:26.013Z,73.80
2022-08-11T07:54:03.150Z,74.60
2022-08-11T07:56:54.688Z,73.20
2022-08-11T08:00:03.316Z,72.40
2022-08-11T08:02:49.967Z,72.60
2022-08-11T08:05:37.159Z,72.60
2022-08-11T08:08:25.760Z,71.70
2022-08-11T08:11:15.032Z,71.80
2022-08-11T08:14:00.986Z,70.40
2022-08-11T08:16:49.137Z,70.80
2022-08-11T08:19:20.658Z,71.80
2022-08-11T08:21:49.524Z,71.50
2022-08-11T08:24:20.086Z,70.60
2022-08-11T08:26:59.700Z,70.40
2022-08-11T08:29:46.934Z,70.20
2022-08-11T08:32:17.395Z,68.70
2022-08-11T08:34:47.026Z,68.80
2022-08-11T08:37:46.605Z,68.00
2022-08-11T08:40:09.359Z,67.30
2022-08-11T08:42:45.296Z,67.70
2022-08-11T08:45:18.439Z,68.00
2022-08-11T08:47:53.088Z,65.40
2022-08-11T08:50:27.709Z,65.90
2022-08-11T08:52:59.410Z,66.40
2022-08-11T08:55:29.792Z,64.10
2022-08-11T08:58:01.295Z,65.00
2022-08-11T09:00:40.844Z,64.50
2022-08-11T09:03:36.673Z,64.70
2022-08-11T09:05:58.505Z,65.70
2022-08-11T09:08:27.520Z,64.90
2022-08-11T09:11:16.057Z,64.60
2022-08-11T09:14:04.718Z,64.30
2022-08-11T09:19:03.878Z,61.60
2022-08-11T09:21:48.510Z,61.10
2022-08-11T09:24:35.736Z,60.10
2022-08-11T09:27:09.596Z,61.40
2022-08-11T09:29:39.800Z,58.90
2022-08-11T09:32:08.853Z,60.60
2022-08-11T09:34:38.311Z,59.50
2022-08-11T09:37:53.328Z,59.60
2022-08-11T09:40:30.998Z,59.30
2022-08-11T09:43:25.768Z,59.30
2022-08-11T09:45:56.838Z,57.90
2022-08-11T09:48:26.960Z,57.80
2022-08-11T09:50:57.223Z,57.90
2022-08-11T09:53:36.808Z,58.00
2022-08-11T09:56:21.870Z,58.00
2022-08-11T09:58:50.904Z,57.10
2022-08-11T10:01:32.752Z,57.20
2022-08-11T10:04:04.914Z,57.20
2022-08-11T10:06:56.318Z,55.60
2022-08-11T10:09:26.119Z,55.30
2022-08-11T10:11:59.282Z,54.50
2022-08-11T10:14:46.827Z,53.10
2022-08-11T10:17:18.541Z,53.00
2022-08-11T10:20:04.047Z,54.20
2022-08-11T10:22:50.920Z,55.80
2022-08-11T10:25:36.964Z,55.40
2022-08-11T10:28:28.747Z,52.70
2022-08-11T10:31:14.814Z,55.70
2022-08-11T10:34:03.750Z,54.80
2022-08-11T10:36:33.869Z,54.60
2022-08-11T10:39:06.686Z,54.40
2022-08-11T10:42:08.526Z,53.50
2022-08-11T10:44:41.248Z,55.10
2022-08-11T10:47:29.374Z,51.30
2022-08-11T10:50:31.056Z,52.40
2022-08-11T10:53:18.677Z,53.30
2022-08-11T10:58:49.580Z,50.70
2022-08-11T11:01:23.533Z,53.50
2022-08-11T11:03:53.834Z,53.30
2022-08-11T11:06:29.832Z,53.70
2022-08-11T11:09:04.502Z,52.60
2022-08-11T11:11:54.015Z,52.50
2022-08-11T11:14:46.121Z,51.70
2022-08-11T11:17:35.836Z,52.80
2022-08-11T11:20:07.547Z,52.20
2022-08-11T11:22:40.076Z,51.50
2022-08-11T11:25:26.283Z,50.90
2022-08-11T11:28:18.175Z,51.00
2022-08-11T11:30:58.326Z,52.40
2022-08-11T11:34:06.686Z,52.80
2022-08-11T11:36:32.658Z,51.90
2022-08-11T11:39:02.444Z,53.50
2022-08-11T11:41:30.975Z,51.50
2022-08-11T11:44:01.518Z,51.90
2022-08-11T11:46:31.713Z,52.50
2022-08-11T11:49:15.792Z,50.20
2022-08-11T11:51:45.837Z,51.10
2022-08-11T11:54:22.290Z,51.10
2022-08-11T11:56:53.349Z,51.20
2022-08-11T11:59:51.410Z,51.20
2022-08-11T12:02:19.585Z,52.10
2022-08-11T12:04:48.926Z,51.30
2022-08-11T12:07:35.494Z,50.70
2022-08-11T12:10:08.412Z,49.20
2022-08-11T12:12:54.458Z,51.80
2022-08-11T12:16:04.307Z,53.10
2022-08-11T12:18:12.762Z,51.20
2022-08-11T12:20:41.224Z,51.60
2022-08-11T12:23:27.797Z,51.00
2022-08-11T12:26:26.883Z,50.90
2022-08-11T12:28:58.612Z,50.70
2022-08-11T12:31:26.858Z,49.40
2022-08-11T12:33:56.093Z,50.50
2022-08-11T12:36:24.572Z,50.30
2022-08-11T12:38:54.135Z,49.70
2022-08-11T12:41:42.019Z,49.80
2022-08-11T12:44:29.713Z,49.30
2022-08-11T12:47:00.783Z,50.50
2022-08-11T12:49:49.674Z,50.60
2022-08-11T12:55:38.772Z,49.50
2022-08-11T12:58:19.303Z,49.20
2022-08-11T13:01:06.189Z,51.00
2022-08-11T13:03:58.879Z,50.00
2022-08-11T13:06:28.121Z,49.60
2022-08-11T13:09:01.500Z,49.70
2022-08-11T13:11:55.601Z,50.50
2022-08-11T13:14:27.154Z,47.70
2022-08-11T13:17:13.742Z,49.80
2022-08-11T13:19:47.547Z,48.50
2022-08-11T13:22:18.744Z,49.10
2022-08-11T13:24:48.105Z,48.40
2022-08-11T13:27:19.292Z,49.10
2022-08-11T13:29:50.035Z,49.20
2022-08-11T13:32:21.471Z,50.40
2022-08-11T13:34:49.962Z,49.20
2022-08-11T13:37:20.877Z,50.50
2022-08-11T13:40:10.545Z,48.10
2022-08-11T13:42:40.209Z,49.30
2022-08-11T13:45:11.237Z,49.30
2022-08-11T13:47:43.839Z,50.50
2022-08-11T13:50:13.507Z,49.60
2022-08-11T13:52:42.694Z,49.30
2022-08-11T13:55:45.183Z,48.90
2022-08-11T13:58:20.736Z,50.00
2022-08-11T14:01:01.716Z,49.60
2022-08-11T14:04:29.151Z,48.90
2022-08-11T14:06:42.551Z,49.10
2022-08-11T14:09:12.157Z,49.40
2022-08-11T14:12:23.901Z,49.20
2022-08-11T14:14:56.202Z,49.10
2022-08-11T14:17:48.438Z,49.50
2022-08-11T14:20:38.306Z,48.80
2022-08-11T14:23:05.523Z,49.40
2022-08-11T14:26:01.261Z,49.30
2022-08-11T14:28:31.164Z,50.50
2022-08-11T14:31:01.981Z,49.30
2022-08-11T14:33:58.606Z,49.10
2022-08-11T14:36:23.583Z,49.80
2022-08-11T14:38:53.918Z,50.00
2022-08-11T14:42:11.399Z,50.20
2022-08-11T14:44:47.409Z,50.60
2022-08-11T14:47:23.994Z,50.30
2022-08-11T14:50:09.380Z,49.50
2022-08-11T14:52:48.715Z,49.30
2022-08-11T14:55:35.823Z,49.90
2022-08-11T14:58:04.605Z,49.00
2022-08-11T15:00:35.250Z,49.80
2022-08-11T15:03:13.950Z,48.70
2022-08-11T15:05:57.506Z,50.00
2022-08-11T15:08:48.855Z,49.40
2022-08-11T15:11:36.288Z,50.20
2022-08-11T15:14:07.231Z,50.10
2022-08-11T15:16:54.497Z,49.60
2022-08-11T15:19:22.720Z,50.80
2022-08-11T15:22:10.049Z,50.10
2022-08-11T15:24:38.422Z,50.00
2022-08-11T15:27:30.132Z,49.90
2022-08-11T15:30:32.556Z,49.80
2022-08-11T15:33:24.449Z,50.20
2022-08-11T15:36:11.848Z,50.50
2022-08-11T15:38:47.305Z,50.40
2022-08-11T15:41:36.247Z,49.60
2022-08-11T15:44:51.403Z,50.10
2022-08-11T15:47:18.043Z,50.70
2022-08-11T15:50:11.271Z,49.50
2022-08-11T15:52:46.740Z,50.20
2022-08-11T15:55:19.104Z,50.10
2022-08-11T15:58:06.781Z,50.40
2022-08-11T16:00:56.862Z,50.50
2022-08-11T16:04:07.891Z,50.30
2022-08-11T16:06:40.507Z,49.90
2022-08-11T16:09:18.406Z,49.50
2022-08-11T16:11:50.349Z,49.00
2022-08-11T16:14:37.617Z,48.70
2022-08-11T16:17:08.068Z,48.30
2022-08-11T16:19:38.332Z,48.80
2022-08-11T16:22:10.037Z,48.80
2022-08-11T16:27:05.337Z,48.90
2022-08-11T16:27:36.746Z,48.60
2022-08-11T16:30:06.953Z,48.90
2022-08-11T16:32:37.474Z,48.90
2022-08-11T16:35:26.818Z,48.60
2022-08-11T16:38:14.239Z,48.90
2022-08-11T16:40:43.658Z,48.40
2022-08-11T16:43:34.426Z,48.10
2022-08-11T16:46:23.099Z,48.70
2022-08-11T16:48:54.111Z,48.70
2022-08-11T16:51:23.589Z,49.40
2022-08-11T16:54:04.999Z,49.50
2022-08-11T16:56:37.050Z,49.50
2022-08-11T16:59:16.202Z,49.10
2022-08-11T17:01:48.284Z,49.30
2022-08-11T17:04:39.703Z,49.80
2022-08-11T17:07:42.231Z,49.40
2022-08-11T17:10:50.402Z,50.00
2022-08-11T17:13:27.950Z,49.90
2022-08-11T17:16:08.590Z,50.00
2022-08-11T17:18:44.259Z,50.30
2022-08-11T17:21:26.248Z,49.60
2022-08-11T17:23:56.997Z,49.60
2022-08-11T17:26:52.796Z,49.70
2022-08-11T17:29:25.756Z,50.30
2022-08-11T17:32:13.886Z,49.80
2022-08-11T17:35:01.900Z,49.80
2022-08-11T17:37:33.149Z,50.20
2022-08-11T17:40:03.569Z,50.30
2022-08-11T17:42:51.477Z,50.70
2022-08-11T17:45:38.323Z,50.80
2022-08-11T17:48:26.481Z,50.60
2022-08-11T17:50:56.424Z,50.60
2022-08-11T17:54:02.077Z,50.70
2022-08-11T17:56:52.766Z,50.10
2022-08-11T17:59:39.129Z,50.00
2022-08-11T18:02:35.081Z,49.60
2022-08-11T18:05:12.333Z,49.10
2022-08-11T18:08:00.265Z,50.00
2022-08-11T18:10:48.289Z,49.90
2022-08-11T18:13:34.587Z,50.10
2022-08-11T18:16:20.162Z,50.40
2022-08-11T18:19:05.777Z,50.90
2022-08-11T18:22:11.198Z,51.90
2022-08-11T18:25:05.135Z,51.70
2022-08-11T18:27:53.430Z,52.00
2022-08-11T18:30:39.380Z,52.10
2022-08-11T18:36:39.387Z,53.90
2022-08-11T18:39:31.690Z,53.80
2022-08-11T18:42:28.897Z,55.70
2022-08-11T18:45:18.836Z,57.90
2022-08-11T18:48:07.296Z,57.50
2022-08-11T18:51:00.653Z,58.30
2022-08-11T18:54:09.059Z,59.40
2022-08-11T18:56:55.891Z,56.90
2022-08-11T18:59:46.000Z,57.70
2022-08-11T19:02:33.130Z,56.60
2022-08-11T19:06:37.302Z,56.50
2022-08-11T19:08:41.830Z,55.20
2022-08-11T19:11:29.684Z,57.10
2022-08-11T19:14:18.017Z,57.90
2022-08-11T19:17:04.538Z,57.80
2022-08-11T19:19:53.015Z,56.70
2022-08-11T19:22:40.099Z,58.20
2022-08-11T19:25:27.229Z,58.30
2022-08-11T19:28:13.772Z,58.40
2022-08-11T19:31:01.483Z,58.70
2022-08-11T19:34:00.446Z,58.60
2022-08-11T19:36:55.180Z,59.50
2022-08-11T19:39:41.245Z,59.50
2022-08-11T19:42:28.105Z,59.20
2022-08-11T19:45:14.659Z,60.10
2022-08-11T19:48:28.471Z,60.50
2022-08-11T19:51:10.395Z,60.80
2022-08-11T19:53:56.712Z,61.10
2022-08-11T19:56:42.756Z,61.70
2022-08-11T19:59:29.194Z,61.20
2022-08-11T20:02:15.128Z,62.20
2022-08-11T20:05:02.649Z,62.50
2022-08-11T20:07:50.053Z,62.90
2022-08-11T20:10:39.983Z,63.20
2022-08-11T20:13:27.639Z,63.00
2022-08-11T20:16:14.718Z,64.30
2022-08-11T20:19:01.947Z,63.80
2022-08-11T20:21:49.179Z,65.00
2022-08-11T20:24:36.696Z,64.50
2022-08-11T20:27:25.638Z,65.10
2022-08-11T20:30:12.581Z,65.20
2022-08-11T20:32:59.123Z,66.00
2022-08-11T20:35:45.838Z,66.30
2022-08-11T20:38:33.857Z,67.10
2022-08-11T20:41:21.271Z,67.40
2022-08-11T20:44:09.595Z,67.90
2022-08-11T20:46:57.326Z,67.20
2022-08-11T20:49:53.652Z,66.70
2022-08-11T20:52:47.178Z,67.50
2022-08-11T20:55:51.718Z,68.20
2022-08-11T21:01:46.459Z,68.30
2022-08-11T21:04:32.539Z,67.40
2022-08-11T21:07:28.167Z,68.50
2022-08-11T21:10:23.142Z,67.90
2022-08-11T21:13:26.534Z,68.70
2022-08-11T21:16:26.448Z,69.00
2022-08-11T21:19:18.936Z,69.70
2022-08-11T21:22:39.580Z,69.40
2022-08-11T21:25:29.815Z,69.90
2022-08-11T21:28:21.199Z,71.50
2022-08-11T21:31:11.906Z,71.70
2022-08-11T21:33:58.814Z,71.80
2022-08-11T21:36:44.952Z,72.20
2022-08-11T21:39:35.247Z,72.10
2022-08-11T21:42:23.221Z,73.20
2022-08-11T21:45:12.678Z,73.50
2022-08-11T21:48:01.142Z,72.80
2022-08-11T21:50:47.579Z,73.00
2022-08-11T21:53:33.691Z,72.50
2022-08-11T21:56:20.385Z,72.90
2022-08-11T21:59:07.520Z,72.60
2022-08-11T22:01:55.252Z,72.60
2022-08-11T22:04:41.604Z,73.10
2022-08-11T22:07:28.456Z,73.60
2022-08-11T22:10:40.209Z,73.60
2022-08-11T22:13:23.106Z,73.70
2022-08-11T22:16:09.082Z,74.00
2022-08-11T22:18:56.888Z,74.00
2022-08-11T22:22:03.447Z,73.80
2022-08-11T22:24:50.683Z,73.90
2022-08-11T22:27:36.310Z,74.10
2022-08-11T22:30:22.295Z,74.00
2022-08-11T22:33:08.557Z,74.30
2022-08-11T22:35:58.364Z,74.10
2022-08-11T22:38:45.321Z,75.20
2022-08-11T22:41:31.416Z,75.00
2022-08-11T22:44:17.270Z,75.50
2022-08-11T22:47:03.750Z,75.70
2022-08-11T22:49:57.425Z,75.70
2022-08-11T22:52:46.491Z,75.80
2022-08-11T22:55:32.952Z,75.80
2022-08-11T22:58:20.482Z,76.40
2022-08-11T23:01:07.168Z,76.30
2022-08-11T23:03:53.659Z,76.70
2022-08-11T23:06:40.250Z,77.00
2022-08-11T23:09:27.981Z,77.30
2022-08-11T23:12:13.875Z,77.60
2022-08-11T23:15:00.401Z,77.30
2022-08-11T23:17:46.834Z,77.60
2022-08-11T23:20:39.561Z,78.00
2022-08-11T23:23:30.089Z,78.20
2022-08-11T23:26:18.707Z,78.00
2022-08-11T23:29:05.376Z,78.30
2022-08-11T23:31:53.646Z,79.40
2022-08-11T23:35:02.548Z,78.70
2022-08-11T23:37:46.508Z,79.20
2022-08-11T23:40:32.389Z,79.80
2022-08-11T23:43:19.510Z,79.60
2022-08-11T23:46:04.941Z,79.70
2022-08-11T23:48:51.545Z,79.00
2022-08-11T23:51:40.876Z,79.30
2022-08-11T23:54:27.543Z,79.50
2022-08-11T23:57:13.338Z,79.60
2022-08-11T23:59:59.928Z,79.30
